Time;durP1;ratioP1;P1;durP2;ratioP2;P2;SDS_P1;SDS_P2;PMS_P1;PMS_P2;Temp;Humidity;BMP_temperature;BMP_pressure;BME280_temperature;BME280_humidity;BME280_pressure;Samples;Min_cycle;Max_cycle;Signal;HPM_P1;HPM_P2
2023/06/16 00:02:00;;;;;;;7.93;6.75;;;11.20;1.00;;;;;;5055108;28;20037;-53
2023/06/16 00:04:27;;;;;;;8.88;6.95;;;11.20;1.00;;;;;;5054130;28;20337;-52
2023/06/16 00:06:53;;;;;;;8.90;7.32;;;11.20;1.00;;;;;;5055554;28;20040;-54
2023/06/16 00:09:22;;;;;;;7.90;7.00;;;11.10;1.00;;;;;;5065458;28;20017;-54
2023/06/16 00:11:48;;;;;;;9.07;7.53;;;11.10;1.00;;;;;;5053975;28;20064;-51
2023/06/16 00:14:13;;;;;;;9.20;7.13;;;11.10;1.00;;;;;;5065487;28;20028;-55
2023/06/16 00:16:39;;;;;;;9.02;7.28;;;11.00;1.00;;;;;;5073914;28;20036;-55
2023/06/16 00:19:05;;;;;;;7.90;6.95;;;11.10;1.00;;;;;;5073903;28;20033;-52
2023/06/16 00:21:38;;;;;;;10.15;7.78;;;11.00;1.00;;;;;;5073661;28;20520;-55
2023/06/16 00:24:05;;;;;;;10.77;7.30;;;11.00;1.00;;;;;;5073568;28;20071;-55
2023/06/16 00:26:31;;;;;;;13.18;9.15;;;11.00;1.00;;;;;;5061463;28;20503;-52
2023/06/16 00:28:57;;;;;;;11.88;9.27;;;10.90;1.00;;;;;;5053644;28;20421;-52
2023/06/16 00:31:27;;;;;;;16.00;11.55;;;10.90;1.00;;;;;;5052314;28;20087;-53
2023/06/16 00:33:53;;;;;;;17.58;13.38;;;10.80;1.00;;;;;;5053725;28;20360;-54
2023/06/16 00:36:19;;;;;;;14.88;11.38;;;10.80;1.00;;;;;;5053373;28;20116;-54
2023/06/16 00:38:45;;;;;;;12.85;10.48;;;10.80;1.00;;;;;;5052468;28;20850;-52
2023/06/16 00:41:11;;;;;;;15.75;10.90;;;10.80;1.00;;;;;;5053313;28;20427;-54
2023/06/16 00:43:37;;;;;;;14.32;11.00;;;10.70;1.00;;;;;;5053521;28;20017;-54
2023/06/16 00:46:02;;;;;;;15.93;10.88;;;10.70;1.00;;;;;;5053455;28;20490;-52
2023/06/16 00:48:28;;;;;;;19.52;11.55;;;10.70;5.40;;;;;;5053268;28;20115;-52
2023/06/16 00:50:55;;;;;;;17.60;11.88;;;10.70;1.00;;;;;;5054844;28;20056;-54
2023/06/16 00:53:21;;;;;;;13.98;10.70;;;10.60;1.50;;;;;;5052936;28;20052;-51
2023/06/16 00:55:47;;;;;;;14.55;11.77;;;10.70;8.00;;;;;;5053277;28;20041;-51
2023/06/16 00:58:14;;;;;;;16.63;10.10;;;10.70;6.80;;;;;;5052931;28;20037;-51
2023/06/16 01:00:39;;;;;;;16.10;10.50;;;10.70;2.10;;;;;;5064662;28;20029;-52
2023/06/16 01:03:08;;;;;;;20.77;13.00;;;10.70;2.60;;;;;;5070006;28;20020;-51
2023/06/16 01:05:35;;;;;;;15.48;10.73;;;10.70;4.50;;;;;;5070118;28;20046;-52
2023/06/16 01:08:15;;;;;;;14.38;9.88;;;10.80;9.30;;;;;;5071052;28;20052;-55
2023/06/16 01:10:56;;;;;;;15.98;11.27;;;10.70;19.00;;;;;;5060875;28;20128;-52
2023/06/16 01:13:31;;;;;;;13.70;10.85;;;10.70;26.50;;;;;;5069902;28;20078;-55
2023/06/16 01:16:01;;;;;;;13.50;11.02;;;10.80;26.50;;;;;;5072491;28;20030;-52
2023/06/16 01:18:29;;;;;;;15.80;10.30;;;10.90;37.70;;;;;;5072583;28;20028;-54
2023/06/16 01:20:59;;;;;;;12.20;9.60;;;11.00;28.50;;;;;;5064667;28;20033;-54
2023/06/16 01:23:47;;;;;;;11.55;9.60;;;11.00;24.50;;;;;;5052586;28;20379;-54
2023/06/16 01:26:14;;;;;;;14.73;8.88;;;11.10;16.80;;;;;;5052466;28;20039;-52
2023/06/16 01:28:41;;;;;;;10.13;7.97;;;11.00;19.30;;;;;;5052541;28;20024;-53
2023/06/16 01:31:12;;;;;;;11.02;9.45;;;11.10;18.50;;;;;;5063340;28;20550;-55
2023/06/16 01:33:39;;;;;;;9.55;8.55;;;11.10;23.10;;;;;;5070814;28;20353;-54
2023/06/16 01:36:05;;;;;;;11.60;9.10;;;11.10;21.80;;;;;;5063939;28;20070;-52
2023/06/16 01:38:32;;;;;;;12.77;9.02;;;11.10;23.40;;;;;;5066557;28;20056;-53
2023/06/16 01:40:59;;;;;;;11.18;9.65;;;11.00;24.90;;;;;;5069921;28;20124;-52
2023/06/16 01:43:25;;;;;;;9.63;8.63;;;11.00;28.00;;;;;;5052194;28;20104;-54
2023/06/16 01:45:51;;;;;;;10.18;8.55;;;10.90;33.10;;;;;;5050833;28;20112;-53
2023/06/16 01:48:19;;;;;;;10.30;8.50;;;10.90;35.60;;;;;;5051840;28;20029;-54
2023/06/16 01:50:45;;;;;;;11.18;9.18;;;11.00;28.40;;;;;;5051011;28;20056;-51
2023/06/16 01:53:11;;;;;;;10.38;8.70;;;10.90;34.30;;;;;;5054555;28;20033;-54
2023/06/16 01:55:37;;;;;;;8.65;7.75;;;10.80;30.80;;;;;;5072155;28;20021;-53
2023/06/16 01:58:03;;;;;;;11.30;9.45;;;10.80;20.40;;;;;;5071642;28;20094;-55
2023/06/16 02:00:35;;;;;;;10.02;8.35;;;10.80;28.80;;;;;;5072001;28;20052;-51
2023/06/16 02:03:11;;;;;;;9.02;7.85;;;10.70;25.20;;;;;;5071806;28;20056;-54
2023/06/16 02:05:41;;;;;;;11.65;8.30;;;10.80;27.20;;;;;;5071968;28;20082;-54
2023/06/16 02:08:07;;;;;;;8.43;7.53;;;10.70;25.60;;;;;;5055434;28;20025;-55
2023/06/16 02:10:34;;;;;;;12.00;8.15;;;10.70;22.30;;;;;;5061837;28;20037;-52
2023/06/16 02:13:00;;;;;;;10.57;7.68;;;10.70;19.70;;;;;;5064843;28;20100;-54
2023/06/16 02:15:27;;;;;;;13.55;8.63;;;10.70;23.90;;;;;;5069430;28;20112;-53
2023/06/16 02:17:57;;;;;;;9.95;8.95;;;10.60;23.80;;;;;;5071316;28;20523;-52
2023/06/16 02:20:28;;;;;;;18.48;8.00;;;10.60;25.50;;;;;;5063191;28;20033;-52
2023/06/16 02:22:54;;;;;;;9.07;7.47;;;10.60;20.40;;;;;;5063400;28;20347;-51
2023/06/16 02:25:20;;;;;;;9.40;7.95;;;10.60;17.90;;;;;;5067792;28;20074;-54
2023/06/16 02:27:46;;;;;;;11.07;7.63;;;10.50;16.70;;;;;;5050465;28;20021;-52
2023/06/16 02:30:13;;;;;;;8.35;7.47;;;10.60;25.10;;;;;;5057763;28;20016;-51
2023/06/16 02:32:39;;;;;;;10.40;7.97;;;10.50;20.10;;;;;;5071400;28;20041;-54
2023/06/16 02:35:06;;;;;;;10.40;8.18;;;10.50;26.80;;;;;;5069985;28;20070;-52
2023/06/16 02:37:35;;;;;;;9.75;8.15;;;10.50;32.90;;;;;;5069846;28;20027;-54
2023/06/16 02:40:05;;;;;;;10.65;8.65;;;10.40;42.20;;;;;;5063223;28;20028;-54
2023/06/16 02:42:32;;;;;;;9.82;8.82;;;10.50;43.40;;;;;;5067427;28;20570;-51
2023/06/16 02:44:57;;;;;;;11.50;9.60;;;10.50;48.30;;;;;;5068855;28;20108;-54
2023/06/16 02:47:23;;;;;;;11.65;8.57;;;10.60;52.70;;;;;;5051449;28;20439;-51
2023/06/16 02:49:50;;;;;;;10.57;8.88;;;10.60;51.70;;;;;;5062052;28;20103;-52
2023/06/16 02:52:16;;;;;;;10.38;8.43;;;10.50;47.80;;;;;;5059279;28;20051;-52
2023/06/16 02:54:41;;;;;;;11.52;8.88;;;10.70;52.10;;;;;;5067956;28;20039;-52
2023/06/16 02:57:07;;;;;;;11.30;9.02;;;10.70;51.40;;;;;;5070852;28;20150;-53
2023/06/16 02:59:34;;;;;;;15.00;9.40;;;10.80;46.20;;;;;;5069642;28;20438;-53
2023/06/16 03:02:00;;;;;;;10.55;9.48;;;10.80;44.40;;;;;;5064829;28;20036;-51
2023/06/16 03:04:27;;;;;;;11.15;9.18;;;10.70;39.10;;;;;;5054658;28;20480;-53
2023/06/16 03:06:57;;;;;;;10.75;8.90;;;10.80;50.00;;;;;;5070387;28;20465;-52
2023/06/16 03:09:24;;;;;;;10.10;9.05;;;10.80;50.50;;;;;;5084069;28;20033;-52
2023/06/16 03:11:50;;;;;;;13.35;9.30;;;10.90;52.30;;;;;;5061869;28;20039;-56
2023/06/16 03:14:16;;;;;;;14.80;8.82;;;11.00;47.20;;;;;;5072069;28;20024;-55
2023/06/16 03:16:42;;;;;;;13.45;8.65;;;11.00;48.20;;;;;;5073845;28;20107;-56
2023/06/16 03:19:08;;;;;;;23.45;9.18;;;11.00;43.60;;;;;;5073553;28;20090;-53
2023/06/16 03:21:34;;;;;;;10.02;8.63;;;10.90;46.90;;;;;;5074981;28;20036;-55
2023/06/16 03:24:00;;;;;;;13.63;9.43;;;10.90;44.70;;;;;;5060511;28;20025;-56
2023/06/16 03:26:26;;;;;;;10.35;8.68;;;10.90;48.10;;;;;;5068439;28;20107;-52
2023/06/16 03:28:51;;;;;;;15.20;8.70;;;10.90;37.60;;;;;;5056407;28;20555;-55
2023/06/16 03:31:17;;;;;;;11.82;8.77;;;11.00;42.70;;;;;;5054681;28;20029;-55
2023/06/16 03:33:43;;;;;;;10.15;8.00;;;11.00;39.90;;;;;;5065964;28;20070;-55
2023/06/16 03:36:09;;;;;;;13.48;8.48;;;11.00;37.60;;;;;;5065537;28;20360;-53
2023/06/16 03:38:35;;;;;;;12.27;8.40;;;10.90;39.90;;;;;;5070744;28;20040;-54
2023/06/16 03:41:01;;;;;;;12.40;9.57;;;10.90;47.10;;;;;;5071727;28;20047;-54
2023/06/16 03:43:26;;;;;;;13.25;9.50;;;11.00;45.80;;;;;;5054483;28;20670;-53
2023/06/16 03:45:52;;;;;;;18.02;9.40;;;11.00;44.60;;;;;;5053190;28;20029;-54
2023/06/16 03:48:18;;;;;;;13.05;9.75;;;11.00;42.80;;;;;;5054218;28;20024;-55
2023/06/16 03:50:43;;;;;;;11.45;9.10;;;11.00;51.80;;;;;;5054414;28;20025;-50
2023/06/16 03:53:09;;;;;;;10.20;9.10;;;11.00;47.40;;;;;;5056860;28;20427;-52
2023/06/16 03:55:35;;;;;;;9.20;8.23;;;11.00;51.10;;;;;;5074424;28;20066;-52
2023/06/16 03:58:01;;;;;;;10.23;8.95;;;11.10;51.20;;;;;;5074090;28;20044;-55
2023/06/16 04:00:27;;;;;;;11.27;8.80;;;11.20;50.40;;;;;;5074184;28;20040;-52
2023/06/16 04:02:52;;;;;;;15.63;9.60;;;11.20;41.50;;;;;;5072957;28;20035;-55
2023/06/16 04:05:19;;;;;;;11.00;9.00;;;11.30;37.60;;;;;;5073241;28;20020;-53
2023/06/16 04:07:45;;;;;;;16.52;9.38;;;11.30;37.10;;;;;;5071150;28;20163;-53
2023/06/16 04:10:11;;;;;;;13.23;9.15;;;11.40;39.20;;;;;;5073597;28;20469;-52
2023/06/16 04:12:36;;;;;;;11.55;8.93;;;11.50;40.90;;;;;;5056869;28;20018;-53
2023/06/16 04:15:03;;;;;;;14.93;8.75;;;11.60;41.80;;;;;;5060471;28;20017;-55
2023/06/16 04:17:29;;;;;;;12.98;10.02;;;11.70;40.20;;;;;;5073684;28;20028;-51
2023/06/16 04:19:55;;;;;;;14.85;9.60;;;11.70;39.20;;;;;;5073697;28;20021;-54
2023/06/16 04:22:21;;;;;;;12.65;9.98;;;11.80;35.00;;;;;;5073388;28;20090;-53
2023/06/16 04:24:46;;;;;;;14.85;9.82;;;11.90;25.40;;;;;;5070024;28;20445;-52
2023/06/16 04:27:12;;;;;;;10.73;8.90;;;11.90;25.40;;;;;;5055654;28;20029;-54
2023/06/16 04:29:41;;;;;;;11.25;9.63;;;11.90;28.70;;;;;;5073291;28;20025;-55
2023/06/16 04:32:10;;;;;;;17.08;9.00;;;12.10;16.00;;;;;;5073544;28;20029;-56
2023/06/16 04:34:38;;;;;;;10.55;8.90;;;12.20;2.60;;;;;;5066466;28;20055;-53
2023/06/16 04:37:04;;;;;;;15.88;8.48;;;12.20;7.80;;;;;;5054459;28;20040;-55
2023/06/16 04:39:30;;;;;;;10.25;9.15;;;12.30;22.10;;;;;;5053576;28;20025;-54
2023/06/16 04:41:56;;;;;;;13.07;9.13;;;12.50;8.40;;;;;;5052074;28;20033;-55
2023/06/16 04:44:21;;;;;;;9.85;8.68;;;12.60;1.00;;;;;;5056189;28;20038;-53
2023/06/16 04:46:47;;;;;;;9.13;8.15;;;12.70;1.00;;;;;;5062084;28;20151;-54
2023/06/16 04:49:32;;;;;;;9.85;8.23;;;12.80;2.30;;;;;;5051988;28;20013;-54
2023/06/16 04:51:58;;;;;;;11.93;8.95;;;12.90;1.00;;;;;;5053215;28;20043;-55
2023/06/16 04:54:24;;;;;;;11.15;9.43;;;13.10;1.00;;;;;;5054608;28;20029;-53
2023/06/16 04:56:50;;;;;;;12.50;8.98;;;13.10;1.00;;;;;;5072946;28;20051;-52
2023/06/16 04:59:16;;;;;;;16.83;10.40;;;12.90;1.00;;;;;;5062240;28;20029;-53
2023/06/16 05:01:41;;;;;;;10.45;8.88;;;13.00;1.00;;;;;;5053108;28;20470;-52
2023/06/16 05:04:08;;;;;;;10.55;8.90;;;12.90;1.00;;;;;;5053001;28;20464;-54
2023/06/16 05:06:37;;;;;;;12.38;9.68;;;13.00;1.00;;;;;;5056540;28;20029;-52
2023/06/16 05:09:04;;;;;;;10.70;9.60;;;13.00;1.00;;;;;;5053877;28;20025;-51
2023/06/16 05:11:30;;;;;;;12.43;10.48;;;13.10;1.00;;;;;;5052670;28;20036;-54
2023/06/16 05:13:55;;;;;;;11.18;9.02;;;13.20;1.00;;;;;;5062292;28;20033;-51
2023/06/16 05:16:21;;;;;;;12.90;9.18;;;13.40;1.00;;;;;;5058320;28;20037;-50
2023/06/16 05:18:47;;;;;;;11.43;9.30;;;13.50;1.00;;;;;;5052734;28;20033;-55
2023/06/16 05:21:12;;;;;;;14.55;8.98;;;13.60;1.00;;;;;;5052699;28;20482;-52
2023/06/16 05:23:38;;;;;;;17.38;9.50;;;13.50;1.00;;;;;;5052339;28;20349;-54
2023/06/16 05:26:05;;;;;;;11.15;9.38;;;13.60;1.00;;;;;;5061911;28;20024;-53
2023/06/16 05:28:31;;;;;;;12.20;9.25;;;13.60;1.00;;;;;;5070664;28;20024;-52
2023/06/16 05:30:56;;;;;;;11.05;9.88;;;13.70;1.00;;;;;;5058328;28;20024;-54
2023/06/16 05:33:22;;;;;;;11.80;9.05;;;13.60;1.00;;;;;;5052392;28;20507;-55
2023/06/16 05:35:48;;;;;;;12.95;8.82;;;13.60;1.00;;;;;;5057780;28;20052;-53
2023/06/16 05:38:13;;;;;;;10.35;9.27;;;13.70;1.00;;;;;;5059130;28;20028;-55
2023/06/16 05:40:39;;;;;;;10.30;8.25;;;13.90;1.00;;;;;;5052269;28;20041;-53
2023/06/16 05:43:05;;;;;;;11.30;9.35;;;14.10;1.00;;;;;;5071460;28;20020;-53
2023/06/16 05:45:30;;;;;;;10.88;8.77;;;14.40;1.00;;;;;;5072124;28;20751;-55
2023/06/16 05:47:56;;;;;;;9.88;8.63;;;14.60;1.00;;;;;;5070877;28;20024;-53
2023/06/16 05:50:21;;;;;;;9.57;8.10;;;14.70;1.00;;;;;;5070800;28;20468;-52
2023/06/16 05:52:47;;;;;;;12.82;8.90;;;14.90;1.00;;;;;;5072115;28;20028;-54
2023/06/16 05:55:13;;;;;;;14.30;9.02;;;15.10;1.00;;;;;;5052756;28;20096;-54
2023/06/16 05:57:39;;;;;;;12.88;9.32;;;15.10;1.00;;;;;;5051830;28;20095;-54
2023/06/16 06:00:07;;;;;;;10.70;8.43;;;15.20;99.90;;;;;;5050491;28;20037;-55
2023/06/16 06:02:33;;;;;;;9.40;7.32;;;15.50;99.90;;;;;;5051947;28;20133;-53
2023/06/16 06:04:59;;;;;;;9.93;7.10;;;15.80;99.90;;;;;;5051976;28;20107;-53
2023/06/16 06:07:25;;;;;;;9.13;7.00;;;16.10;1.00;;;;;;5055587;28;20025;-55
2023/06/16 06:09:50;;;;;;;10.20;7.72;;;16.40;99.90;;;;;;5060445;28;20025;-53
2023/06/16 06:12:17;;;;;;;15.60;8.68;;;16.70;99.90;;;;;;5071529;28;20488;-53
2023/06/16 06:18:04;;;;;;;17.95;8.25;;;16.70;99.90;;;;;;5051694;28;20163;-53
2023/06/16 06:20:30;;;;;;;9.35;7.50;;;16.60;99.90;;;;;;5055167;28;20144;-54
2023/06/16 06:22:56;;;;;;;14.60;8.10;;;16.60;99.90;;;;;;5055280;28;20025;-52
2023/06/16 06:25:21;;;;;;;14.70;7.88;;;16.70;99.90;;;;;;5060345;28;20615;-52
2023/06/16 06:27:47;;;;;;;12.90;8.30;;;17.00;99.90;;;;;;5069047;28;20375;-57
2023/06/16 06:30:13;;;;;;;8.95;7.78;;;17.20;99.90;;;;;;5055475;28;20029;-55
2023/06/16 06:32:38;;;;;;;10.88;8.48;;;17.50;99.90;;;;;;5066824;28;20093;-57
2023/06/16 06:35:04;;;;;;;8.60;7.28;;;17.50;99.90;;;;;;5053459;28;20029;-55
2023/06/16 06:37:31;;;;;;;11.25;7.28;;;17.70;99.90;;;;;;5052197;28;20025;-56
2023/06/16 06:39:57;;;;;;;11.23;7.65;;;17.80;99.90;;;;;;5051561;28;20326;-56
2023/06/16 06:42:23;;;;;;;8.00;6.60;;;17.80;99.50;;;;;;5051280;28;20046;-53
2023/06/16 06:44:49;;;;;;;8.20;7.40;;;17.90;97.40;;;;;;5051360;28;20020;-54
2023/06/16 06:47:14;;;;;;;9.07;8.07;;;18.20;98.80;;;;;;5051153;28;20104;-52
2023/06/16 06:49:44;;;;;;;9.15;7.80;;;18.30;97.20;;;;;;5051208;28;20025;-55
2023/06/16 06:52:09;;;;;;;10.85;7.82;;;18.50;96.70;;;;;;5061872;28;20047;-57
2023/06/16 06:54:35;;;;;;;12.93;7.82;;;18.60;96.40;;;;;;5051398;28;20033;-55
2023/06/16 06:57:00;;;;;;;8.00;6.40;;;18.60;95.80;;;;;;5051209;28;20043;-57
2023/06/16 06:59:26;;;;;;;10.13;6.95;;;18.70;96.00;;;;;;5051166;28;20483;-56
2023/06/16 07:01:52;;;;;;;7.95;6.97;;;18.80;95.90;;;;;;5052167;28;20029;-56
2023/06/16 07:04:17;;;;;;;9.48;7.63;;;18.70;94.80;;;;;;5066401;28;20035;-54
2023/06/16 07:06:43;;;;;;;9.93;7.35;;;19.10;95.20;;;;;;5070443;28;20035;-55
2023/06/16 07:09:08;;;;;;;9.15;6.30;;;19.20;95.40;;;;;;5069505;28;20025;-55
2023/06/16 07:11:34;;;;;;;10.10;7.50;;;19.50;95.80;;;;;;5071370;28;20031;-52
2023/06/16 07:14:01;;;;;;;9.85;7.38;;;19.50;94.50;;;;;;5058383;28;20491;-54
2023/06/16 07:16:28;;;;;;;9.75;8.13;;;19.20;94.40;;;;;;5051118;28;20542;-55
2023/06/16 07:18:53;;;;;;;9.73;7.57;;;19.30;94.50;;;;;;5050810;28;20025;-53
2023/06/16 07:21:19;;;;;;;23.67;11.48;;;19.50;95.30;;;;;;5050214;28;20166;-53
2023/06/16 07:23:44;;;;;;;21.55;10.27;;;19.50;96.20;;;;;;5060946;28;20044;-52
2023/06/16 07:26:10;;;;;;;15.15;9.23;;;19.60;95.50;;;;;;5068068;28;20476;-53
2023/06/16 07:28:36;;;;;;;38.15;14.82;;;19.50;94.80;;;;;;5057971;28;20052;-54
2023/06/16 07:31:02;;;;;;;17.85;10.30;;;19.40;95.20;;;;;;5071042;28;20020;-55
2023/06/16 07:33:28;;;;;;;15.25;9.30;;;19.20;94.30;;;;;;5067141;28;20380;-54
2023/06/16 07:35:53;;;;;;;13.88;7.22;;;18.90;95.00;;;;;;5058343;28;20021;-53
2023/06/16 07:38:20;;;;;;;9.80;8.38;;;19.30;96.00;;;;;;5069438;28;20025;-56
2023/06/16 07:40:46;;;;;;;9.88;8.57;;;19.30;96.00;;;;;;5056192;28;20480;-54
2023/06/16 07:43:11;;;;;;;12.23;7.53;;;19.30;95.80;;;;;;5049504;28;20025;-53
2023/06/16 07:45:37;;;;;;;9.02;8.13;;;19.20;95.30;;;;;;5049647;28;20029;-53
2023/06/16 07:48:04;;;;;;;11.52;7.75;;;19.30;95.30;;;;;;5052133;28;20016;-55
2023/06/16 07:50:30;;;;;;;15.27;8.90;;;19.20;95.00;;;;;;5054328;28;20075;-53
2023/06/16 07:52:56;;;;;;;13.85;9.25;;;19.20;95.00;;;;;;5067592;28;20017;-53
2023/06/16 07:55:22;;;;;;;14.73;8.98;;;19.20;95.00;;;;;;5074323;28;20524;-55
2023/06/16 07:57:48;;;;;;;9.05;8.15;;;19.30;94.80;;;;;;5074334;28;20044;-54
2023/06/16 08:00:14;;;;;;;11.95;8.65;;;19.40;94.80;;;;;;5074226;28;20016;-52
2023/06/16 08:02:43;;;;;;;10.43;7.57;;;19.40;94.60;;;;;;5074087;28;20021;-54
2023/06/16 08:05:11;;;;;;;13.10;8.32;;;19.60;94.10;;;;;;5071788;28;20541;-53
2023/06/16 08:07:37;;;;;;;9.60;7.70;;;19.60;93.10;;;;;;5055313;28;20380;-52
2023/06/16 08:10:04;;;;;;;13.43;8.18;;;19.70;93.90;;;;;;5053991;28;20021;-54
2023/06/16 08:12:30;;;;;;;11.50;7.60;;;19.80;93.30;;;;;;5052808;28;20124;-52
2023/06/16 08:14:56;;;;;;;12.18;8.10;;;19.80;93.50;;;;;;5055580;28;20510;-54
2023/06/16 08:17:22;;;;;;;10.95;6.80;;;19.90;92.20;;;;;;5055940;28;20044;-54
2023/06/16 08:19:48;;;;;;;8.70;7.80;;;19.90;92.50;;;;;;5053888;28;20064;-51
2023/06/16 08:22:13;;;;;;;12.30;7.70;;;20.30;92.10;;;;;;5053607;28;20453;-51
2023/06/16 08:24:39;;;;;;;11.10;8.35;;;20.40;92.30;;;;;;5053834;28;20445;-55
2023/06/16 08:27:06;;;;;;;19.42;8.38;;;20.40;91.90;;;;;;5062142;28;20033;-56
2023/06/16 08:29:33;;;;;;;10.70;7.15;;;20.60;91.50;;;;;;5053699;28;20380;-56
2023/06/16 08:31:58;;;;;;;10.35;6.90;;;20.80;91.60;;;;;;5053568;28;20033;-54
2023/06/16 08:34:24;;;;;;;28.48;8.55;;;21.00;92.40;;;;;;5053296;28;20021;-54
2023/06/16 08:36:50;;;;;;;14.90;8.73;;;20.70;90.80;;;;;;5067271;28;20040;-56
2023/06/16 08:39:16;;;;;;;8.32;7.53;;;20.80;91.50;;;;;;5072393;28;20035;-53
2023/06/16 08:41:41;;;;;;;10.57;7.10;;;21.20;90.70;;;;;;5058570;28;20060;-55
2023/06/16 08:44:10;;;;;;;13.95;7.43;;;21.40;90.60;;;;;;5069535;28;20474;-55
2023/06/16 08:46:36;;;;;;;8.25;7.07;;;21.40;89.00;;;;;;5072776;28;20433;-56
2023/06/16 08:49:04;;;;;;;9.82;6.97;;;21.40;88.40;;;;;;5072021;28;20027;-56
2023/06/16 08:51:34;;;;;;;15.43;8.35;;;22.00;89.70;;;;;;5072254;28;20475;-51
2023/06/16 08:54:03;;;;;;;10.40;7.60;;;22.20;88.00;;;;;;5065895;28;20107;-53
2023/06/16 08:56:31;;;;;;;14.30;7.97;;;22.20;86.80;;;;;;5061394;28;20055;-53
2023/06/16 08:59:00;;;;;;;10.25;7.03;;;21.80;85.10;;;;;;5054714;28;20021;-53
2023/06/16 09:01:28;;;;;;;12.43;7.75;;;21.70;89.70;;;;;;5051673;28;20036;-56
2023/06/16 09:03:55;;;;;;;7.88;6.28;;;22.20;85.80;;;;;;5066420;28;20052;-55
2023/06/16 09:06:21;;;;;;;17.33;6.55;;;22.50;82.80;;;;;;5063234;28;20542;-55
2023/06/16 09:08:47;;;;;;;9.88;6.38;;;22.60;81.60;;;;;;5066883;28;20025;-56
2023/06/16 09:11:23;;;;;;;10.10;7.60;;;22.60;81.40;;;;;;5058401;28;20090;-55
2023/06/16 09:13:51;;;;;;;36.78;22.17;;;22.20;82.30;;;;;;5061552;28;20059;-55
2023/06/16 09:16:18;;;;;;;13.77;8.55;;;22.20;82.00;;;;;;5054767;28;20033;-54
2023/06/16 09:18:44;;;;;;;11.38;6.60;;;22.00;82.30;;;;;;5054017;28;20028;-55
2023/06/16 09:21:23;;;;;;;9.10;6.18;;;21.70;81.60;;;;;;5052445;28;20017;-55
2023/06/16 09:23:58;;;;;;;9.63;6.00;;;21.70;82.90;;;;;;5060454;28;20086;-55
2023/06/16 09:26:29;;;;;;;8.43;6.22;;;22.20;85.70;;;;;;5063141;28;20090;-56
2023/06/16 09:28:56;;;;;;;7.43;5.13;;;22.30;80.30;;;;;;5071749;28;20036;-56
2023/06/16 09:31:23;;;;;;;13.57;6.00;;;22.20;79.90;;;;;;5072160;28;20813;-55
2023/06/16 09:33:49;;;;;;;9.73;5.97;;;22.20;80.40;;;;;;5064755;28;20048;-56
2023/06/16 09:36:28;;;;;;;6.68;5.53;;;22.10;80.70;;;;;;5051954;28;20032;-54
2023/06/16 09:38:53;;;;;;;7.38;5.43;;;22.10;80.00;;;;;;5057457;28;20024;-52
2023/06/16 09:41:20;;;;;;;10.82;5.97;;;22.00;83.30;;;;;;5072072;28;20059;-56
2023/06/16 09:43:45;;;;;;;12.63;5.70;;;22.00;82.50;;;;;;5071878;28;20486;-59
2023/06/16 09:46:13;;;;;;;7.25;5.13;;;22.40;79.20;;;;;;5071872;28;20008;-54
2023/06/16 09:48:50;;;;;;;10.50;5.13;;;22.80;78.40;;;;;;5071669;28;20031;-56
2023/06/16 09:51:23;;;;;;;13.25;5.28;;;23.20;79.20;;;;;;5071714;28;20028;-55
2023/06/16 09:53:49;;;;;;;9.52;5.28;;;23.10;75.00;;;;;;5072055;28;20115;-52
2023/06/16 09:56:19;;;;;;;8.60;4.95;;;23.10;74.30;;;;;;5071828;28;20032;-54
2023/06/16 09:58:46;;;;;;;12.35;4.80;;;23.60;75.90;;;;;;5071754;28;20090;-54
2023/06/16 10:01:13;;;;;;;6.80;4.82;;;23.90;73.20;;;;;;5069785;28;20039;-57
2023/06/16 10:03:43;;;;;;;9.95;4.90;;;24.30;71.60;;;;;;5070488;28;20078;-56
2023/06/16 10:06:20;;;;;;;6.97;4.80;;;24.30;67.40;;;;;;5069204;28;20024;-56
2023/06/16 10:08:49;;;;;;;22.95;4.75;;;23.90;66.60;;;;;;5062387;28;20535;-56
2023/06/16 10:11:16;;;;;;;11.70;4.45;;;23.90;60.80;;;;;;5050660;28;20056;-55
2023/06/16 10:13:52;;;;;;;4.70;3.80;;;23.90;56.80;;;;;;5058834;28;20039;-54
2023/06/16 10:16:23;;;;;;;11.77;4.35;;;24.10;56.00;;;;;;5059097;28;20495;-56
2023/06/16 10:18:53;;;;;;;8.18;4.40;;;24.70;59.60;;;;;;5066146;28;20028;-54
2023/06/16 10:21:19;;;;;;;9.82;3.92;;;24.70;51.70;;;;;;5071292;28;20055;-54
2023/06/16 10:23:45;;;;;;;14.50;3.92;;;25.10;52.70;;;;;;5071566;28;20499;-54
2023/06/16 10:26:12;;;;;;;7.10;3.60;;;25.40;53.80;;;;;;5066622;28;20463;-56
2023/06/16 10:28:39;;;;;;;7.75;4.20;;;25.20;51.40;;;;;;5065502;28;20052;-55
2023/06/16 10:31:05;;;;;;;7.93;4.80;;;25.30;50.30;;;;;;5051425;28;20115;-53
2023/06/16 10:33:59;;;;;;;5.80;4.63;;;24.80;50.40;;;;;;5040387;28;20032;-55
2023/06/16 10:36:33;;;;;;;;;;;25.30;50.30;;;;;;5041642;28;20045;-55
2023/06/16 10:39:13;;;;;;;10.63;4.78;;;25.70;53.40;;;;;;5041297;28;19979;-56
2023/06/16 10:42:11;;;;;;;8.52;3.92;;;25.80;49.10;;;;;;5035842;28;20037;-56
2023/06/16 10:44:37;;;;;;;9.82;4.38;;;25.80;50.20;;;;;;5032414;28;20049;-56
2023/06/16 10:47:08;;;;;;;6.22;4.45;;;25.80;47.40;;;;;;5039282;28;20079;-55
2023/06/16 10:49:51;;;;;;;7.72;4.70;;;25.60;48.10;;;;;;5047779;28;20025;-56
2023/06/16 10:52:30;;;;;;;8.40;4.00;;;25.40;48.70;;;;;;5042934;28;20353;-57
2023/06/16 10:54:57;;;;;;;10.85;4.85;;;25.30;48.10;;;;;;5038057;28;20396;-56
2023/06/16 10:57:27;;;;;;;5.05;3.65;;;24.50;48.70;;;;;;5051250;28;20167;-56
2023/06/16 10:59:56;;;;;;;5.55;3.97;;;24.70;51.80;;;;;;5038755;28;20056;-55
2023/06/16 11:02:34;;;;;;;4.63;3.70;;;24.70;49.70;;;;;;5037393;28;20135;-52
2023/06/16 11:05:22;;;;;;;7.32;4.80;;;24.60;48.30;;;;;;5034147;28;20021;-55
2023/06/16 11:08:05;;;;;;;8.93;4.45;;;24.70;49.10;;;;;;5033888;28;20036;-56
2023/06/16 11:10:50;;;;;;;9.40;3.80;;;24.50;52.30;;;;;;5055963;28;20049;-56
2023/06/16 11:13:25;;;;;;;9.07;4.82;;;24.50;52.60;;;;;;5049750;28;20025;-56
2023/06/16 11:15:56;;;;;;;10.82;4.40;;;24.20;57.10;;;;;;5051937;28;20495;-54
2023/06/16 11:18:26;;;;;;;7.78;4.60;;;24.40;56.00;;;;;;5062904;28;20120;-56
2023/06/16 11:21:03;;;;;;;13.40;4.65;;;24.40;57.00;;;;;;5054351;28;20039;-55
2023/06/16 11:23:29;;;;;;;12.43;5.03;;;24.10;54.60;;;;;;5042331;28;20043;-55
2023/06/16 11:26:08;;;;;;;6.95;4.90;;;23.70;55.10;;;;;;5044484;28;20104;-56
2023/06/16 11:28:40;;;;;;;8.98;5.35;;;23.40;55.40;;;;;;5044405;28;20056;-55
2023/06/16 11:31:07;;;;;;;6.47;4.53;;;23.20;57.30;;;;;;5044032;28;20025;-52
2023/06/16 11:33:35;;;;;;;12.05;4.85;;;23.20;55.90;;;;;;5043580;28;20523;-57
2023/06/16 11:36:22;;;;;;;6.38;4.57;;;23.10;56.80;;;;;;5047984;28;20106;-57
2023/06/16 11:38:51;;;;;;;8.38;5.32;;;23.20;57.30;;;;;;5045381;28;20025;-56
2023/06/16 11:41:21;;;;;;;8.90;5.30;;;23.20;56.40;;;;;;5048096;28;20027;-56
2023/06/16 11:43:50;;;;;;;7.82;4.75;;;22.90;56.20;;;;;;5043952;28;20025;-56
2023/06/16 11:46:18;;;;;;;8.20;4.05;;;23.10;59.80;;;;;;5045407;28;20036;-54
2023/06/16 11:48:44;;;;;;;6.18;4.32;;;23.00;55.40;;;;;;5043846;28;20036;-56
2023/06/16 11:51:11;;;;;;;9.80;4.68;;;22.70;52.80;;;;;;5043315;28;20082;-57
2023/06/16 11:53:36;;;;;;;10.02;4.13;;;22.50;53.80;;;;;;5043654;28;20033;-57
2023/06/16 11:56:15;;;;;;;6.38;4.60;;;22.50;53.90;;;;;;5043723;28;20085;-56
2023/06/16 11:58:43;;;;;;;8.52;4.43;;;22.50;54.40;;;;;;5046552;28;20060;-56
2023/06/16 12:01:13;;;;;;;5.32;4.32;;;22.60;54.30;;;;;;5043611;28;20021;-54
2023/06/16 12:03:40;;;;;;;6.03;4.65;;;23.00;56.50;;;;;;5043644;28;20044;-55
2023/06/16 12:06:06;;;;;;;6.03;4.47;;;22.80;50.80;;;;;;5042415;28;20099;-56
2023/06/16 12:08:50;;;;;;;6.97;4.43;;;22.60;53.10;;;;;;5043414;28;20039;-53
2023/06/16 12:11:24;;;;;;;8.68;4.68;;;22.50;54.00;;;;;;5042760;28;20021;-56
2023/06/16 12:13:52;;;;;;;12.07;5.38;;;22.70;54.40;;;;;;5043498;28;20045;-56
2023/06/16 12:16:17;;;;;;;8.60;4.45;;;23.20;56.70;;;;;;5042860;28;20434;-54
2023/06/16 12:18:43;;;;;;;9.63;4.55;;;23.40;54.40;;;;;;5043375;28;20029;-54
2023/06/16 12:21:23;;;;;;;7.35;4.65;;;23.30;53.70;;;;;;5042918;28;20033;-55
2023/06/16 12:23:58;;;;;;;6.72;4.85;;;23.50;53.20;;;;;;5043410;28;20029;-55
2023/06/16 12:26:33;;;;;;;10.80;5.10;;;23.60;56.30;;;;;;5043103;28;20032;-55
2023/06/16 12:29:01;;;;;;;8.32;4.28;;;23.50;52.80;;;;;;5042527;28;22429;-57
2023/06/16 12:31:28;;;;;;;10.70;4.53;;;23.30;51.80;;;;;;5042941;28;20033;-56
2023/06/16 12:33:55;;;;;;;6.45;4.20;;;23.30;51.60;;;;;;5041079;28;20084;-57
2023/06/16 12:36:21;;;;;;;10.82;5.13;;;23.20;54.20;;;;;;5041775;28;20056;-57
2023/06/16 12:38:47;;;;;;;11.55;5.13;;;23.10;53.60;;;;;;5043068;28;20031;-55
2023/06/16 12:41:15;;;;;;;8.43;4.75;;;22.80;51.40;;;;;;5042031;28;20025;-55
2023/06/16 12:43:51;;;;;;;10.30;5.20;;;22.60;53.40;;;;;;5042541;28;20029;-58
2023/06/16 12:46:17;;;;;;;9.73;5.07;;;22.40;53.90;;;;;;5041216;28;20025;-56
2023/06/16 12:48:44;;;;;;;7.65;4.18;;;22.20;54.90;;;;;;5047369;28;20013;-55
2023/06/16 12:51:11;;;;;;;7.75;5.70;;;22.10;57.30;;;;;;5052441;28;20511;-57